Aviation Digital Data Service (ADDS)

Output produced by METARs form (2219 UTC 17 November 2018)
found at http://www.aviationweather.gov/metar/data/
 
METAR text: EPKK 172200Z 04009KT CAVOK M02/M06 Q1035
Conditions at: EPKK (KRAKOW/BALICE , PL) observed 2200 UTC 17 November 2018
Temperature: -2.0°C (28°F)
Dewpoint: -6.0°C (21°F) [RH = 74%]
Pressure (altimeter): 30.56 inches Hg (1035.0 mb)
Winds: from the NE (40 degrees) at 10 MPH (9 knots; 4.6 m/s)
Visibility: 6 or more miles (10+ km)
Ceiling: ceiling and visibility are OK
Clouds: unknown
Weather: no significant weather observed at this time

METAR text: EPKK 172130Z 05008KT CAVOK M02/M06 Q1034
Conditions at: EPKK (KRAKOW/BALICE , PL) observed 2130 UTC 17 November 2018
Temperature: -2.0°C (28°F)
Dewpoint: -6.0°C (21°F) [RH = 74%]
Pressure (altimeter): 30.53 inches Hg (1034.0 mb)
Winds: from the NE (50 degrees) at 9 MPH (8 knots; 4.1 m/s)
Visibility: 6 or more miles (10+ km)
Ceiling: ceiling and visibility are OK
Clouds: unknown
Weather: no significant weather observed at this time

Forecast for: EPKK (KRAKOW/BALICE , PL)
Text: TAF EPKK 172030Z 1721/1821 06007KT CAVOK
Forecast period: 2100 UTC 17 November 2018 to 1500 UTC 18 November 2018
Forecast type: FROM: standard forecast or significant change
Winds: from the ENE (60 degrees) at 8 MPH (7 knots; 3.6 m/s)
Visibility: 6 or more miles 10+ km)
Ceiling: unknown
Clouds: missing
Weather: NSW  (no significant weather)
Text: PROB40
Forecast period: 0000 to 0900 UTC 18 November 2018
Forecast type: TEMPORARY: The following changes expected for less than half the time period
Visibility: missing
Ceiling: 1000 feet AGL
Clouds: broken clouds at 1000 feet AGL
Weather: no significant weather forecast for this period
Text: TEMPO 1800/1809 BKN010
Forecast period: 1500 to 2100 UTC 18 November 2018
Forecast type: BECOMING: Conditions expected to become as follows by 1800 UTC 18 November 2018
Winds: from the ENE (60 degrees) at 8 MPH (7 knots; 3.6 m/s)
Visibility: 6 or more miles 10+ km)
Ceiling: 1400 feet AGL
Clouds: broken clouds at 1400 feet AGL
Weather: NSW  (no significant weather)
Text: BECMG 1815/1818 BKN014
Forecast period: 1600 to 1800 UTC 18 November 2018
Forecast type: TEMPORARY: The following changes expected for less than half the time period
Visibility: 1.55 miles (2.49 km)
Ceiling: unknown
Clouds: missing
Weather: SN BR  (moderate snow, mist)